sensor_id;sensor_type;location;lat;lon;timestamp;pressure;altitude;pressure_sealevel;temperature;humidity
56811;BME280;42691;47.234;27.494;2022-07-22T00:02:21;99539.41;;;23.52;87.51
56811;BME280;42691;47.234;27.494;2022-07-22T00:04:46;99539.22;;;23.46;89.91
56811;BME280;42691;47.234;27.494;2022-07-22T00:07:12;99534.53;;;23.39;89.21
56811;BME280;42691;47.234;27.494;2022-07-22T00:09:38;99540.00;;;23.38;89.72
56811;BME280;42691;47.234;27.494;2022-07-22T00:12:04;99532.19;;;23.36;88.74
56811;BME280;42691;47.234;27.494;2022-07-22T00:14:30;99544.28;;;23.31;90.25
56811;BME280;42691;47.234;27.494;2022-07-22T00:16:56;99543.97;;;23.34;90.14
56811;BME280;42691;47.234;27.494;2022-07-22T00:19:21;99551.25;;;23.32;89.97
56811;BME280;42691;47.234;27.494;2022-07-22T00:21:49;99543.97;;;23.34;89.36
56811;BME280;42691;47.234;27.494;2022-07-22T00:24:14;99549.56;;;23.23;90.90
56811;BME280;42691;47.234;27.494;2022-07-22T00:26:40;99537.31;;;23.30;90.17
56811;BME280;42691;47.234;27.494;2022-07-22T00:29:05;99547.94;;;23.30;90.18
56811;BME280;42691;47.234;27.494;2022-07-22T00:31:31;99543.25;;;23.24;91.56
56811;BME280;42691;47.234;27.494;2022-07-22T00:33:56;99552.22;;;23.23;92.32
56811;BME280;42691;47.234;27.494;2022-07-22T00:36:22;99544.75;;;23.26;91.96
56811;BME280;42691;47.234;27.494;2022-07-22T00:38:47;99546.34;;;23.11;93.09
56811;BME280;42691;47.234;27.494;2022-07-22T00:41:13;99552.31;;;23.13;93.04
56811;BME280;42691;47.234;27.494;2022-07-22T00:43:58;99542.53;;;23.14;93.19
56811;BME280;42691;47.234;27.494;2022-07-22T00:46:24;99538.78;;;22.98;94.90
56811;BME280;42691;47.234;27.494;2022-07-22T00:48:50;99541.13;;;23.01;95.85
56811;BME280;42691;47.234;27.494;2022-07-22T00:51:17;99528.34;;;22.97;95.12
56811;BME280;42691;47.234;27.494;2022-07-22T00:53:44;99537.44;;;22.94;96.42
56811;BME280;42691;47.234;27.494;2022-07-22T00:56:10;99537.75;;;22.91;96.57
56811;BME280;42691;47.234;27.494;2022-07-22T00:58:36;99540.88;;;22.87;97.04
56811;BME280;42691;47.234;27.494;2022-07-22T01:01:01;99540.88;;;22.87;97.53
56811;BME280;42691;47.234;27.494;2022-07-22T01:03:27;99528.38;;;22.79;97.75
56811;BME280;42691;47.234;27.494;2022-07-22T01:05:52;99543.38;;;22.88;97.97
56811;BME280;42691;47.234;27.494;2022-07-22T01:08:18;99522.69;;;22.74;98.79
56811;BME280;42691;47.234;27.494;2022-07-22T01:10:44;99534.75;;;22.86;97.74
56811;BME280;42691;47.234;27.494;2022-07-22T01:13:09;99539.75;;;22.71;98.96
56811;BME280;42691;47.234;27.494;2022-07-22T01:15:35;99536.47;;;22.77;99.16
56811;BME280;42691;47.234;27.494;2022-07-22T01:18:01;99536.88;;;22.83;97.23
56811;BME280;42691;47.234;27.494;2022-07-22T01:20:26;99536.94;;;22.73;98.97
56811;BME280;42691;47.234;27.494;2022-07-22T01:22:52;99529.00;;;22.73;99.00
56811;BME280;42691;47.234;27.494;2022-07-22T01:25:18;99530.66;;;22.74;99.54
56811;BME280;42691;47.234;27.494;2022-07-22T01:27:43;99522.34;;;22.69;99.15
56811;BME280;42691;47.234;27.494;2022-07-22T01:30:10;99527.31;;;22.72;100.00
56811;BME280;42691;47.234;27.494;2022-07-22T01:32:35;99525.50;;;22.72;100.00
56811;BME280;42691;47.234;27.494;2022-07-22T01:35:02;99516.63;;;22.64;100.00
56811;BME280;42691;47.234;27.494;2022-07-22T01:37:28;99524.50;;;22.73;100.00
56811;BME280;42691;47.234;27.494;2022-07-22T01:39:53;99529.00;;;22.73;100.00
56811;BME280;42691;47.234;27.494;2022-07-22T01:42:19;99524.00;;;22.70;100.00
56811;BME280;42691;47.234;27.494;2022-07-22T01:44:44;99532.31;;;22.75;100.00
56811;BME280;42691;47.234;27.494;2022-07-22T01:47:10;99534.59;;;22.70;100.00
56811;BME280;42691;47.234;27.494;2022-07-22T01:49:36;99514.97;;;22.63;100.00
56811;BME280;42691;47.234;27.494;2022-07-22T01:52:04;99530.81;;;22.72;100.00
56811;BME280;42691;47.234;27.494;2022-07-22T01:54:30;99541.56;;;22.71;100.00
56811;BME280;42691;47.234;27.494;2022-07-22T01:56:55;99536.56;;;22.68;100.00
56811;BME280;42691;47.234;27.494;2022-07-22T01:59:21;99534.38;;;22.63;100.00
56811;BME280;42691;47.234;27.494;2022-07-22T02:01:46;99523.03;;;22.53;100.00
56811;BME280;42691;47.234;27.494;2022-07-22T02:04:12;99533.84;;;22.60;100.00
56811;BME280;42691;47.234;27.494;2022-07-22T02:06:37;99538.47;;;22.58;100.00
56811;BME280;42691;47.234;27.494;2022-07-22T02:09:03;99534.47;;;22.54;100.00
56811;BME280;42691;47.234;27.494;2022-07-22T02:11:29;99532.50;;;22.56;100.00
56811;BME280;42691;47.234;27.494;2022-07-22T02:13:54;99535.81;;;22.58;100.00
56811;BME280;42691;47.234;27.494;2022-07-22T02:16:20;99531.81;;;22.54;100.00
56811;BME280;42691;47.234;27.494;2022-07-22T02:18:46;99540.75;;;22.53;100.00
56811;BME280;42691;47.234;27.494;2022-07-22T02:21:12;99546.81;;;22.45;100.00
56811;BME280;42691;47.234;27.494;2022-07-22T02:23:37;99538.56;;;22.48;100.00
56811;BME280;42691;47.234;27.494;2022-07-22T02:26:03;99545.38;;;22.51;100.00
56811;BME280;42691;47.234;27.494;2022-07-22T02:28:28;99544.69;;;22.49;100.00
56811;BME280;42691;47.234;27.494;2022-07-22T02:30:53;99541.81;;;22.42;100.00
56811;BME280;42691;47.234;27.494;2022-07-22T02:33:19;99546.91;;;22.35;100.00
56811;BME280;42691;47.234;27.494;2022-07-22T02:35:45;99544.25;;;22.35;100.00
56811;BME280;42691;47.234;27.494;2022-07-22T02:38:10;99543.88;;;22.30;100.00
56811;BME280;42691;47.234;27.494;2022-07-22T02:40:36;99556.72;;;22.25;100.00
56811;BME280;42691;47.234;27.494;2022-07-22T02:43:02;99545.97;;;22.27;100.00
56811;BME280;42691;47.234;27.494;2022-07-22T02:45:28;99546.13;;;22.25;100.00
56811;BME280;42691;47.234;27.494;2022-07-22T02:47:55;99561.56;;;22.30;100.00
56811;BME280;42691;47.234;27.494;2022-07-22T02:50:21;99549.75;;;22.24;100.00
56811;BME280;42691;47.234;27.494;2022-07-22T02:52:47;99550.59;;;22.25;100.00
56811;BME280;42691;47.234;27.494;2022-07-22T02:55:13;99560.63;;;22.31;100.00
56811;BME280;42691;47.234;27.494;2022-07-22T02:57:38;99531.22;;;22.06;100.00
56811;BME280;42691;47.234;27.494;2022-07-22T03:00:06;99561.72;;;22.28;100.00
56811;BME280;42691;47.234;27.494;2022-07-22T03:02:33;99560.66;;;22.21;100.00
56811;BME280;42691;47.234;27.494;2022-07-22T03:04:59;99563.16;;;22.23;100.00
56811;BME280;42691;47.234;27.494;2022-07-22T03:07:25;99564.97;;;22.22;100.00
56811;BME280;42691;47.234;27.494;2022-07-22T03:09:50;99555.16;;;22.14;100.00
56811;BME280;42691;47.234;27.494;2022-07-22T03:12:15;99564.84;;;22.24;100.00
56811;BME280;42691;47.234;27.494;2022-07-22T03:14:41;99558.03;;;22.21;100.00
56811;BME280;42691;47.234;27.494;2022-07-22T03:17:06;99562.88;;;22.26;100.00
56811;BME280;42691;47.234;27.494;2022-07-22T03:19:32;99564.47;;;22.36;100.00
56811;BME280;42691;47.234;27.494;2022-07-22T03:21:57;99566.59;;;22.51;100.00
56811;BME280;42691;47.234;27.494;2022-07-22T03:24:23;99556.72;;;22.61;100.00
56811;BME280;42691;47.234;27.494;2022-07-22T03:26:48;99557.94;;;22.84;100.00
56811;BME280;42691;47.234;27.494;2022-07-22T03:29:14;99558.50;;;22.96;100.00
56811;BME280;42691;47.234;27.494;2022-07-22T03:31:39;99557.84;;;23.20;100.00
56811;BME280;42691;47.234;27.494;2022-07-22T03:34:05;99557.91;;;23.36;100.00
56811;BME280;42691;47.234;27.494;2022-07-22T03:36:30;99559.72;;;23.61;100.00
56811;BME280;42691;47.234;27.494;2022-07-22T03:38:56;99559.50;;;23.89;100.00
56811;BME280;42691;47.234;27.494;2022-07-22T03:41:21;99560.19;;;23.99;100.00
56811;BME280;42691;47.234;27.494;2022-07-22T03:43:47;99562.72;;;24.25;100.00
56811;BME280;42691;47.234;27.494;2022-07-22T03:46:13;99556.28;;;24.52;100.00
56811;BME280;42691;47.234;27.494;2022-07-22T03:48:39;99556.97;;;24.70;100.00
56811;BME280;42691;47.234;27.494;2022-07-22T03:51:04;99545.66;;;24.92;98.70
56811;BME280;42691;47.234;27.494;2022-07-22T03:53:30;99568.56;;;25.18;98.14
56811;BME280;42691;47.234;27.494;2022-07-22T03:55:58;99567.50;;;25.43;95.30
56811;BME280;42691;47.234;27.494;2022-07-22T03:58:23;99574.59;;;25.59;95.71
56811;BME280;42691;47.234;27.494;2022-07-22T04:00:49;99564.78;;;25.68;94.07
56811;BME280;42691;47.234;27.494;2022-07-22T04:03:15;99572.66;;;25.92;92.26
56811;BME280;42691;47.234;27.494;2022-07-22T04:05:40;99569.59;;;26.03;93.03
56811;BME280;42691;47.234;27.494;2022-07-22T04:08:06;99558.34;;;26.16;92.25
56811;BME280;42691;47.234;27.494;2022-07-22T04:10:32;99572.69;;;26.46;90.69
56811;BME280;42691;47.234;27.494;2022-07-22T04:12:57;99569.03;;;26.39;90.39
56811;BME280;42691;47.234;27.494;2022-07-22T04:15:23;99557.78;;;26.52;90.81
56811;BME280;42691;47.234;27.494;2022-07-22T04:17:48;99567.84;;;26.87;91.29
56811;BME280;42691;47.234;27.494;2022-07-22T04:20:14;99565.63;;;26.91;90.69
56811;BME280;42691;47.234;27.494;2022-07-22T04:22:39;99561.38;;;27.19;87.72
56811;BME280;42691;47.234;27.494;2022-07-22T04:25:05;99557.13;;;27.39;87.36
56811;BME280;42691;47.234;27.494;2022-07-22T04:27:31;99561.84;;;27.67;86.59
56811;BME280;42691;47.234;27.494;2022-07-22T04:29:56;99568.09;;;27.89;85.07
56811;BME280;42691;47.234;27.494;2022-07-22T04:32:22;99556.63;;;27.95;84.22
56811;BME280;42691;47.234;27.494;2022-07-22T04:34:47;99570.59;;;28.12;84.83
56811;BME280;42691;47.234;27.494;2022-07-22T04:37:13;99565.38;;;28.03;84.75
56811;BME280;42691;47.234;27.494;2022-07-22T04:39:38;99566.25;;;28.25;83.73
56811;BME280;42691;47.234;27.494;2022-07-22T04:42:04;99566.63;;;28.44;83.01
56811;BME280;42691;47.234;27.494;2022-07-22T04:44:30;99565.53;;;28.59;82.27
56811;BME280;42691;47.234;27.494;2022-07-22T04:46:55;99568.78;;;28.76;80.53
56811;BME280;42691;47.234;27.494;2022-07-22T04:49:21;99564.13;;;28.85;80.60
56811;BME280;42691;47.234;27.494;2022-07-22T04:51:46;99562.75;;;28.46;81.68
56811;BME280;42691;47.234;27.494;2022-07-22T04:54:11;99571.41;;;28.27;84.63
56811;BME280;42691;47.234;27.494;2022-07-22T04:56:37;99563.56;;;28.47;82.46
56811;BME280;42691;47.234;27.494;2022-07-22T04:59:03;99562.97;;;28.94;84.20
56811;BME280;42691;47.234;27.494;2022-07-22T05:01:28;99572.09;;;29.00;80.82
56811;BME280;42691;47.234;27.494;2022-07-22T05:03:55;99577.81;;;29.24;80.72
56811;BME280;42691;47.234;27.494;2022-07-22T05:06:20;99580.09;;;29.27;80.46
56811;BME280;42691;47.234;27.494;2022-07-22T05:08:46;99574.91;;;29.54;79.61
56811;BME280;42691;47.234;27.494;2022-07-22T05:11:11;99576.97;;;29.52;78.33
56811;BME280;42691;47.234;27.494;2022-07-22T05:13:37;99576.47;;;29.42;79.27
56811;BME280;42691;47.234;27.494;2022-07-22T05:16:03;99578.13;;;29.43;79.79
56811;BME280;42691;47.234;27.494;2022-07-22T05:18:29;99581.34;;;29.66;80.56
56811;BME280;42691;47.234;27.494;2022-07-22T05:20:55;99577.53;;;29.88;79.58
56811;BME280;42691;47.234;27.494;2022-07-22T05:23:20;99578.31;;;30.30;79.48
56811;BME280;42691;47.234;27.494;2022-07-22T05:25:45;99576.13;;;29.99;79.24
56811;BME280;42691;47.234;27.494;2022-07-22T05:28:11;99574.75;;;30.10;78.80
56811;BME280;42691;47.234;27.494;2022-07-22T05:30:37;99577.25;;;30.18;78.84
56811;BME280;42691;47.234;27.494;2022-07-22T05:33:02;99581.00;;;30.37;79.22
56811;BME280;42691;47.234;27.494;2022-07-22T05:35:28;99572.38;;;30.55;77.60
56811;BME280;42691;47.234;27.494;2022-07-22T05:37:53;99582.44;;;30.33;79.57
56811;BME280;42691;47.234;27.494;2022-07-22T05:40:19;99587.59;;;30.41;79.13
56811;BME280;42691;47.234;27.494;2022-07-22T05:42:44;99576.28;;;30.59;78.18
56811;BME280;42691;47.234;27.494;2022-07-22T05:45:10;99572.81;;;30.65;76.82
56811;BME280;42691;47.234;27.494;2022-07-22T05:47:35;99579.41;;;30.95;78.23
56811;BME280;42691;47.234;27.494;2022-07-22T05:50:01;99582.31;;;30.87;79.48
56811;BME280;42691;47.234;27.494;2022-07-22T05:52:26;99573.84;;;30.90;79.52
56811;BME280;42691;47.234;27.494;2022-07-22T05:54:52;99576.91;;;31.07;76.88
56811;BME280;42691;47.234;27.494;2022-07-22T05:57:18;99580.25;;;31.02;78.54
56811;BME280;42691;47.234;27.494;2022-07-22T05:59:44;99565.75;;;31.30;78.63
56811;BME280;42691;47.234;27.494;2022-07-22T06:02:09;99568.44;;;31.30;78.43
56811;BME280;42691;47.234;27.494;2022-07-22T06:04:34;99560.81;;;31.27;77.29
56811;BME280;42691;47.234;27.494;2022-07-22T06:07:00;99574.03;;;31.02;79.39
56811;BME280;42691;47.234;27.494;2022-07-22T06:09:25;99556.66;;;31.31;78.24
56811;BME280;42691;47.234;27.494;2022-07-22T06:11:51;99560.28;;;31.56;80.30
56811;BME280;42691;47.234;27.494;2022-07-22T06:14:16;99552.47;;;31.48;77.12
56811;BME280;42691;47.234;27.494;2022-07-22T06:16:42;99568.13;;;31.64;80.04
56811;BME280;42691;47.234;27.494;2022-07-22T06:19:07;99564.31;;;31.92;79.58
56811;BME280;42691;47.234;27.494;2022-07-22T06:21:33;99561.38;;;32.00;77.77
56811;BME280;42691;47.234;27.494;2022-07-22T06:23:58;99564.31;;;31.92;77.57
56811;BME280;42691;47.234;27.494;2022-07-22T06:26:24;99569.28;;;31.88;77.34
56811;BME280;42691;47.234;27.494;2022-07-22T06:28:49;99571.81;;;32.21;75.05
56811;BME280;42691;47.234;27.494;2022-07-22T06:31:15;99572.78;;;32.33;75.34
56811;BME280;42691;47.234;27.494;2022-07-22T06:33:42;99573.81;;;32.32;75.04
56811;BME280;42691;47.234;27.494;2022-07-22T06:36:08;99569.84;;;32.42;76.49
56811;BME280;42691;47.234;27.494;2022-07-22T06:38:33;99571.41;;;32.56;77.15
56811;BME280;42691;47.234;27.494;2022-07-22T06:40:59;99571.84;;;32.53;74.81
56811;BME280;42691;47.234;27.494;2022-07-22T06:43:26;99569.81;;;32.73;72.97
56811;BME280;42691;47.234;27.494;2022-07-22T06:45:51;99567.38;;;32.65;75.29
56811;BME280;42691;47.234;27.494;2022-07-22T06:48:17;99562.16;;;32.70;77.46
56811;BME280;42691;47.234;27.494;2022-07-22T06:50:42;99566.84;;;32.56;74.93
56811;BME280;42691;47.234;27.494;2022-07-22T06:53:08;99569.72;;;32.86;72.37
56811;BME280;42691;47.234;27.494;2022-07-22T06:55:33;99571.75;;;32.91;75.45
56811;BME280;42691;47.234;27.494;2022-07-22T06:57:59;99574.06;;;32.87;75.01
56811;BME280;42691;47.234;27.494;2022-07-22T07:00:25;99569.28;;;32.89;75.74
56811;BME280;42691;47.234;27.494;2022-07-22T07:02:50;99563.06;;;33.14;73.18
56811;BME280;42691;47.234;27.494;2022-07-22T07:05:16;99570.31;;;33.13;74.96
56811;BME280;42691;47.234;27.494;2022-07-22T07:07:41;99564.25;;;33.18;74.63
56811;BME280;42691;47.234;27.494;2022-07-22T07:10:07;99568.38;;;33.20;74.16
56811;BME280;42691;47.234;27.494;2022-07-22T07:12:35;99576.97;;;33.29;76.80
56811;BME280;42691;47.234;27.494;2022-07-22T07:15:01;99564.13;;;33.31;72.26
56811;BME280;42691;47.234;27.494;2022-07-22T07:17:26;99575.66;;;33.38;73.16
56811;BME280;42691;47.234;27.494;2022-07-22T07:19:52;99575.56;;;33.26;72.48
56811;BME280;42691;47.234;27.494;2022-07-22T07:22:17;99582.53;;;33.16;74.13
56811;BME280;42691;47.234;27.494;2022-07-22T07:24:42;99573.19;;;32.93;72.54
56811;BME280;42691;47.234;27.494;2022-07-22T07:27:08;99577.41;;;33.08;75.15
56811;BME280;42691;47.234;27.494;2022-07-22T07:29:34;99586.66;;;33.18;75.80
56811;BME280;42691;47.234;27.494;2022-07-22T07:31:59;99577.84;;;33.05;75.96
56811;BME280;42691;47.234;27.494;2022-07-22T07:34:25;99574.16;;;32.74;74.67
56811;BME280;42691;47.234;27.494;2022-07-22T07:36:51;99579.38;;;32.69;75.29
56811;BME280;42691;47.234;27.494;2022-07-22T07:39:16;99575.41;;;32.78;75.87
56811;BME280;42691;47.234;27.494;2022-07-22T07:41:41;99584.09;;;32.80;74.20
56811;BME280;42691;47.234;27.494;2022-07-22T07:44:07;99580.47;;;32.37;74.56
56811;BME280;42691;47.234;27.494;2022-07-22T07:46:33;99579.50;;;32.18;75.68
56811;BME280;42691;47.234;27.494;2022-07-22T07:48:58;99583.97;;;32.37;74.79
56811;BME280;42691;47.234;27.494;2022-07-22T07:51:24;99573.75;;;32.46;78.15
56811;BME280;42691;47.234;27.494;2022-07-22T07:53:49;99571.50;;;32.43;75.75
56811;BME280;42691;47.234;27.494;2022-07-22T07:56:16;99582.94;;;32.38;76.89
56811;BME280;42691;47.234;27.494;2022-07-22T07:58:41;99578.06;;;31.57;79.45
56811;BME280;42691;47.234;27.494;2022-07-22T08:01:07;99575.63;;;31.42;79.46
56811;BME280;42691;47.234;27.494;2022-07-22T08:03:32;99566.03;;;31.80;79.61
56811;BME280;42691;47.234;27.494;2022-07-22T08:05:58;99573.09;;;31.67;79.58
56811;BME280;42691;47.234;27.494;2022-07-22T08:08:25;99569.44;;;31.42;78.67
56811;BME280;42691;47.234;27.494;2022-07-22T08:10:51;99573.09;;;31.67;81.05
56811;BME280;42691;47.234;27.494;2022-07-22T08:13:17;99578.03;;;31.77;79.32
56811;BME280;42691;47.234;27.494;2022-07-22T08:15:42;99572.38;;;31.01;83.17
56811;BME280;42691;47.234;27.494;2022-07-22T08:18:08;99574.34;;;31.71;81.15
56811;BME280;42691;47.234;27.494;2022-07-22T08:20:33;99571.59;;;31.85;80.57
56811;BME280;42691;47.234;27.494;2022-07-22T08:22:59;99567.03;;;31.85;80.01
56811;BME280;42691;47.234;27.494;2022-07-22T08:25:25;99568.22;;;31.96;79.79
56811;BME280;42691;47.234;27.494;2022-07-22T08:27:51;99568.22;;;31.96;80.29
56811;BME280;42691;47.234;27.494;2022-07-22T08:30:17;99575.06;;;31.92;79.28
56811;BME280;42691;47.234;27.494;2022-07-22T08:32:43;99565.94;;;31.93;78.99
56811;BME280;42691;47.234;27.494;2022-07-22T08:35:09;99576.09;;;31.91;78.53
56811;BME280;42691;47.234;27.494;2022-07-22T08:37:35;99556.53;;;31.77;76.83
56811;BME280;42691;47.234;27.494;2022-07-22T08:40:01;99556.94;;;31.67;75.38
56811;BME280;42691;47.234;27.494;2022-07-22T08:42:27;99553.66;;;31.72;75.24
56811;BME280;42691;47.234;27.494;2022-07-22T08:44:53;99562.47;;;31.86;73.85
56811;BME280;42691;47.234;27.494;2022-07-22T08:47:22;99560.13;;;31.96;76.27
56811;BME280;42691;47.234;27.494;2022-07-22T08:49:48;99550.84;;;31.92;73.72
56811;BME280;42691;47.234;27.494;2022-07-22T08:52:13;99545.81;;;31.57;73.34
56811;BME280;42691;47.234;27.494;2022-07-22T08:54:39;99550.06;;;31.85;75.14
56811;BME280;42691;47.234;27.494;2022-07-22T08:57:04;99553.94;;;31.95;75.67
56811;BME280;42691;47.234;27.494;2022-07-22T08:59:30;99557.03;;;31.99;76.26
56811;BME280;42691;47.234;27.494;2022-07-22T09:02:09;99560.81;;;31.85;73.84
56811;BME280;42691;47.234;27.494;2022-07-22T09:04:57;99549.88;;;31.80;72.22
56811;BME280;42691;47.234;27.494;2022-07-22T09:07:29;99549.03;;;31.86;73.68
56811;BME280;42691;47.234;27.494;2022-07-22T09:09:56;99553.19;;;31.82;72.03
56811;BME280;42691;47.234;27.494;2022-07-22T09:12:22;99546.41;;;31.59;71.04
56811;BME280;42691;47.234;27.494;2022-07-22T09:14:52;99547.22;;;31.73;73.05
56811;BME280;42691;47.234;27.494;2022-07-22T09:19:52;99552.72;;;31.98;71.28
56811;BME280;42691;47.234;27.494;2022-07-22T09:22:34;99560.56;;;31.99;72.84
56811;BME280;42691;47.234;27.494;2022-07-22T09:25:23;99559.78;;;31.86;71.68
56811;BME280;42691;47.234;27.494;2022-07-22T09:27:52;99564.31;;;31.92;71.07
56811;BME280;42691;47.234;27.494;2022-07-22T09:30:23;99557.88;;;31.93;69.66
56811;BME280;42691;47.234;27.494;2022-07-22T09:32:50;99558.09;;;31.91;71.63
56811;BME280;42691;47.234;27.494;2022-07-22T09:35:16;99561.06;;;31.77;74.49
56811;BME280;42691;47.234;27.494;2022-07-22T09:40:22;99549.25;;;31.84;69.42
56811;BME280;42691;47.234;27.494;2022-07-22T09:42:56;99557.69;;;31.88;68.65
56811;BME280;42691;47.234;27.494;2022-07-22T09:45:23;99554.16;;;31.94;68.78
56811;BME280;42691;47.234;27.494;2022-07-22T09:47:49;99561.38;;;32.00;68.96
56811;BME280;42691;47.234;27.494;2022-07-22T09:50:20;99557.78;;;31.75;70.19
56811;BME280;42691;47.234;27.494;2022-07-22T09:52:50;99554.91;;;31.56;68.82
56811;BME280;42691;47.234;27.494;2022-07-22T09:55:18;99550.97;;;31.59;67.60
56811;BME280;42691;47.234;27.494;2022-07-22T09:57:45;99547.84;;;31.68;67.76
56811;BME280;42691;47.234;27.494;2022-07-22T10:00:12;99561.94;;;31.70;66.79
56811;BME280;42691;47.234;27.494;2022-07-22T10:02:47;99550.84;;;31.92;69.17
56811;BME280;42691;47.234;27.494;2022-07-22T10:05:15;99551.28;;;31.89;69.04
56811;BME280;42691;47.234;27.494;2022-07-22T10:07:42;99556.13;;;31.74;66.97
56811;BME280;42691;47.234;27.494;2022-07-22T10:10:12;99554.25;;;31.67;67.10
56811;BME280;42691;47.234;27.494;2022-07-22T10:12:39;99553.59;;;31.85;68.54
56811;BME280;42691;47.234;27.494;2022-07-22T10:15:06;99554.41;;;31.86;67.74
56811;BME280;42691;47.234;27.494;2022-07-22T10:17:35;99548.63;;;31.82;68.12
56811;BME280;42691;47.234;27.494;2022-07-22T10:20:01;99553.59;;;31.85;69.35
56811;BME280;42691;47.234;27.494;2022-07-22T10:25:06;99542.78;;;31.98;64.17
56811;BME280;42691;47.234;27.494;2022-07-22T10:30:19;99547.38;;;31.85;66.37
56811;BME280;42691;47.234;27.494;2022-07-22T10:32:45;99546.56;;;31.84;68.52
56811;BME280;42691;47.234;27.494;2022-07-22T10:37:37;99541.63;;;31.75;65.83
56811;BME280;42691;47.234;27.494;2022-07-22T10:45:50;99562.44;;;31.99;65.77
56811;BME280;42691;47.234;27.494;2022-07-22T10:48:18;99551.34;;;31.76;65.32
56811;BME280;42691;47.234;27.494;2022-07-22T10:50:55;99542.06;;;31.71;64.57
56811;BME280;42691;47.234;27.494;2022-07-22T10:54:00;99540.16;;;31.79;63.40
56811;BME280;42691;47.234;27.494;2022-07-22T10:59:15;99547.72;;;32.01;63.10
56811;BME280;42691;47.234;27.494;2022-07-22T11:01:51;99545.28;;;31.87;62.01
56811;BME280;42691;47.234;27.494;2022-07-22T11:04:18;99551.88;;;31.97;64.72
56811;BME280;42691;47.234;27.494;2022-07-22T11:06:49;99537.38;;;31.98;64.08
56811;BME280;42691;47.234;27.494;2022-07-22T11:09:18;99547.81;;;31.82;63.14
56811;BME280;42691;47.234;27.494;2022-07-22T11:11:52;99539.91;;;31.87;64.31
56811;BME280;42691;47.234;27.494;2022-07-22T11:14:31;99551.06;;;31.90;65.50
56811;BME280;42691;47.234;27.494;2022-07-22T11:17:00;99552.53;;;31.86;64.70
56811;BME280;42691;47.234;27.494;2022-07-22T11:19:30;99543.66;;;31.86;65.44
56811;BME280;42691;47.234;27.494;2022-07-22T11:21:59;99543.59;;;31.99;63.61
56811;BME280;42691;47.234;27.494;2022-07-22T11:24:28;99537.41;;;31.92;64.23
56811;BME280;42691;47.234;27.494;2022-07-22T11:26:55;99535.09;;;31.95;60.75
56811;BME280;42691;47.234;27.494;2022-07-22T11:31:52;99533.19;;;32.09;62.17
56811;BME280;42691;47.234;27.494;2022-07-22T11:34:17;99540.47;;;31.95;64.90
56811;BME280;42691;47.234;27.494;2022-07-22T11:36:46;99537.78;;;32.02;60.87
56811;BME280;42691;47.234;27.494;2022-07-22T11:39:14;99537.56;;;32.03;60.81
56811;BME280;42691;47.234;27.494;2022-07-22T11:41:43;99518.25;;;32.13;57.30
56811;BME280;42691;47.234;27.494;2022-07-22T11:44:08;99526.16;;;32.08;57.15
56811;BME280;42691;47.234;27.494;2022-07-22T11:46:36;99534.00;;;32.10;58.39
56811;BME280;42691;47.234;27.494;2022-07-22T11:49:03;99531.09;;;32.11;55.72
56811;BME280;42691;47.234;27.494;2022-07-22T11:51:30;99526.59;;;32.05;57.63
56811;BME280;42691;47.234;27.494;2022-07-22T11:53:56;99519.06;;;32.14;57.06
56811;BME280;42691;47.234;27.494;2022-07-22T11:56:22;99523.97;;;32.23;58.12
56811;BME280;42691;47.234;27.494;2022-07-22T11:58:48;99520.22;;;32.24;56.16
56811;BME280;42691;47.234;27.494;2022-07-22T12:01:16;99521.47;;;32.28;55.13
56811;BME280;42691;47.234;27.494;2022-07-22T12:03:45;99526.84;;;32.28;55.24
56811;BME280;42691;47.234;27.494;2022-07-22T12:06:13;99513.81;;;32.25;57.51
56811;BME280;42691;47.234;27.494;2022-07-22T12:08:46;99514.16;;;32.04;57.25
56811;BME280;42691;47.234;27.494;2022-07-22T12:11:13;99512.78;;;32.26;59.83
56811;BME280;42691;47.234;27.494;2022-07-22T12:13:47;99507.94;;;32.42;56.44
56811;BME280;42691;47.234;27.494;2022-07-22T12:16:20;99501.06;;;32.46;53.34
56811;BME280;42691;47.234;27.494;2022-07-22T12:18:51;99509.50;;;32.18;51.26
56811;BME280;42691;47.234;27.494;2022-07-22T12:21:17;99506.94;;;32.36;56.46
56811;BME280;42691;47.234;27.494;2022-07-22T12:23:50;99490.44;;;32.51;54.95
56811;BME280;42691;47.234;27.494;2022-07-22T12:26:16;99513.72;;;32.63;53.03
56811;BME280;42691;47.234;27.494;2022-07-22T12:28:42;99505.44;;;32.65;53.74
56811;BME280;42691;47.234;27.494;2022-07-22T12:31:07;99497.69;;;32.50;53.10
56811;BME280;42691;47.234;27.494;2022-07-22T12:33:33;99493.28;;;32.56;50.59
56811;BME280;42691;47.234;27.494;2022-07-22T12:35:59;99502.13;;;32.63;52.50
56811;BME280;42691;47.234;27.494;2022-07-22T12:38:25;99491.59;;;32.61;52.25
56811;BME280;42691;47.234;27.494;2022-07-22T12:40:51;99504.00;;;32.62;52.81
56811;BME280;42691;47.234;27.494;2022-07-22T12:43:16;99494.34;;;32.55;55.90
56811;BME280;42691;47.234;27.494;2022-07-22T12:45:42;99496.16;;;32.61;54.55
56811;BME280;42691;47.234;27.494;2022-07-22T12:48:09;99484.47;;;32.49;53.19
56811;BME280;42691;47.234;27.494;2022-07-22T12:50:53;99494.78;;;32.52;54.02
56811;BME280;42691;47.234;27.494;2022-07-22T12:53:21;99482.50;;;32.38;55.82
56811;BME280;42691;47.234;27.494;2022-07-22T12:55:51;99490.06;;;32.47;56.15
56811;BME280;42691;47.234;27.494;2022-07-22T12:58:18;99483.09;;;32.40;56.01
56811;BME280;42691;47.234;27.494;2022-07-22T13:00:49;99490.16;;;32.59;56.86
56811;BME280;42691;47.234;27.494;2022-07-22T13:03:15;99485.22;;;32.56;52.20
56811;BME280;42691;47.234;27.494;2022-07-22T13:05:44;99464.34;;;32.51;53.10
56811;BME280;42691;47.234;27.494;2022-07-22T13:08:11;99491.66;;;32.55;57.34
56811;BME280;42691;47.234;27.494;2022-07-22T13:10:36;99483.69;;;32.42;58.60